Share

Goloson International, Honduras

Goloson International (MHLC) Elev 46 ft | 15.75 °N, 86.84 °W | Change Station

Current weather conditions updated 7 minutes ago

Mostly Cloudy
Mostly Cloudy
73 °F
Feels Like 73 °F
N
0
Wind Variable Wind from North
Sunrise 5:29 AM
Sunset 6:03 PM
Moon Waning Gibbous

Today is forecast to be nearly the same temperature as yesterday. Showers ending by midday.

Pressure 30.01 in
Visibility 6.2 miles
Clouds Scattered Clouds 2400 ft
Mostly Cloudy 8000 ft
Dew Point 70 °F
Humidity 88%
Rainfall 0.00 in
Snow Depth Not available.
UV 1 out of 16
Pollen Not available.
Air Quality Not available.
Flu Activity Not available.
METAR MHLC 201300Z 00000KT 9999 SCT024 BKN080 23/21 Q1016 A3000 NOSIG

More Conditions Fewer Conditions

Pressure 30.01 in
Visibility 6.2 miles
Clouds Scattered Clouds 2400 ft
Mostly Cloudy 8000 ft
Dew Point 70 °F
Humidity 88%
Rainfall 0.00 in
Snow Depth Not available.
UV 1 out of 16
Pollen Not available.
Air Quality Not available.
Flu Activity Not available.
METAR MHLC 201300Z 00000KT 9999 SCT024 BKN080 23/21 Q1016 A3000 NOSIG

More Conditions Fewer Conditions

10-Day Weather Forecast

Almanac

Astronomy

Apr. 20, 2014 Rise Set
Actual Time 5:29 AM CST 6:03 PM CST
Civil Twilight 5:07 AM CST 6:25 PM CST
Nautical Twilight 4:41 AM CST 6:51 PM CST
Astronomical Twilight 4:15 AM CST 7:17 PM CST
Moon 11:19 PM CST 10:07 AM CST
Length of Visible Light 13h 17m
Length of Day
12h 33m
Tomorrow will be 0m 48s longer.
Waning Gibbous, 70% of the Moon is Illuminated
Today
Waning Gibbous
Apr 22
Last Quarter
Apr 29
New
May 6
First Quarter
May 14
Full

Yesterday's Extremes

Country Highs Country Lows

Community

  • EARLY FOGGY MORNING
    EARLY FOGGY MORNING
  • Easter Greetings
    Easter Greetings
  • Sunny day at the coast-Cape Arago Lighthouse
    Sunny day at the coast-Cape Arago Lighthouse
  • Cherry Blossoms
    Cherry Blossoms
  • White-Crowned Sparrow
    White-Crowned Sparrow

WunderPhotos

Upload Photos

1,703,195 photos uploaded!

Nearby

Snow Depth

Not available.

Coastal Water Temperatures

Place Temperature
No Stations Reporting

Earthquake Activity

City Distance Mag. Time & Date
No recent earthquake activity has been reported nearby.
Minimum magnitude displayed is 2.5.

Nearby Weather Stations

Station Location Temp. Heat Index Dew Point Humidity Wind Precip. Elev Updated Type
Utila 81.9 °F 89 °F 75 °F 80% ENE  at  7.0 mph 0.00 in / hr 25 ft 6:36 AM CST Rapid Fire

Show More Stations Show Fewer Stations

What do you think?

We're not finished. Please let us know what you like, what you don't like, and what you are still missing.